Huttig, Arkansas
Current Conditions -  °F | °C
As of 11:15 AM on Friday 28 Nov 2014 (Local Time) from KBQP Reporting Station
Clear Clear  
Wind Chill: 11°   Ceiling: Unl
Heat Index: 11°   Visibility: 10mi
Dew Point:   Wind: 8mph
Humidity: 50%   Direction: 190°S
Pressure: 30.36"   Gusts: NA
Location:  33.04°N, 92.18°W
Report Text: KBQP 281715Z AUTO 19007KT 10SM CLR 11/01 A3036 RMK AO2 T01110009
Loading
Personal Weather Stations






























Interactive Weather Map New forecast layout! Learn more

10-Day Weather Forecast

Advertisements
Track Severe Weather on mobile